createdAt,value
2023-01-21T00:00:59.338Z,17.15
2023-01-21T00:03:26.050Z,14.07
2023-01-21T00:05:52.839Z,19.48
2023-01-21T00:08:19.503Z,12.75
2023-01-21T00:10:46.277Z,12.75
2023-01-21T00:13:12.947Z,13.75
2023-01-21T00:15:39.728Z,12.05
2023-01-21T00:18:06.978Z,18.73
2023-01-21T00:20:33.898Z,15.93
2023-01-21T00:23:00.595Z,11.77
2023-01-21T00:25:27.272Z,14.77
2023-01-21T00:27:53.911Z,14.07
2023-01-21T00:30:21.302Z,14.02
2023-01-21T00:32:47.913Z,14.40
2023-01-21T00:35:15.164Z,10.85
2023-01-21T00:37:41.868Z,13.75
2023-01-21T00:40:09.170Z,16.42
2023-01-21T00:42:35.803Z,14.10
2023-01-21T00:45:02.677Z,13.43
2023-01-21T00:47:29.314Z,13.88
2023-01-21T00:49:55.946Z,12.98
2023-01-21T00:52:22.643Z,13.15
2023-01-21T00:54:49.293Z,12.90
2023-01-21T00:57:16.348Z,12.48
2023-01-21T00:59:43.303Z,19.10
2023-01-21T01:02:10.302Z,13.95
2023-01-21T01:04:37.007Z,13.63
2023-01-21T01:07:04.362Z,16.02
2023-01-21T01:09:31.104Z,16.02
2023-01-21T01:11:57.785Z,21.38
2023-01-21T01:14:24.538Z,17.92
2023-01-21T01:16:51.186Z,20.95
2023-01-21T01:19:17.958Z,23.25
2023-01-21T01:21:44.674Z,18.90
2023-01-21T01:24:11.422Z,14.00
2023-01-21T01:26:39.521Z,15.07
2023-01-21T01:29:11.425Z,16.92
2023-01-21T01:31:38.199Z,14.80
2023-01-21T01:34:04.987Z,13.98
2023-01-21T01:36:31.654Z,11.45
2023-01-21T01:38:59.145Z,10.95
2023-01-21T01:41:29.473Z,10.57
2023-01-21T01:44:04.796Z,9.88
2023-01-21T01:46:36.992Z,12.07
2023-01-21T01:49:18.105Z,10.50
2023-01-21T01:51:58.971Z,12.52
2023-01-21T01:54:33.853Z,13.00
2023-01-21T01:57:02.922Z,9.02
2023-01-21T01:59:30.969Z,10.20
2023-01-21T02:02:03.582Z,12.00
2023-01-21T02:04:37.169Z,9.70
2023-01-21T02:07:04.936Z,8.75
2023-01-21T02:09:31.823Z,11.13
2023-01-21T02:12:01.393Z,9.73
2023-01-21T02:14:30.533Z,9.43
2023-01-21T02:16:59.898Z,11.35
2023-01-21T02:20:02.491Z,11.23
2023-01-21T02:22:49.364Z,10.25
2023-01-21T02:26:03.865Z,11.82
2023-01-21T02:28:51.652Z,12.35
2023-01-21T02:31:33.561Z,14.60
2023-01-21T02:34:38.105Z,14.20
2023-01-21T02:37:25.517Z,10.60
2023-01-21T02:39:55.068Z,12.15
2023-01-21T02:42:46.152Z,10.75
2023-01-21T02:45:37.953Z,13.50
2023-01-21T02:48:27.904Z,14.20
2023-01-21T02:50:55.248Z,13.77
2023-01-21T02:53:33.388Z,16.67
2023-01-21T02:56:09.583Z,16.10
2023-01-21T02:58:42.926Z,16.52
2023-01-21T03:01:46.765Z,13.60
2023-01-21T03:04:31.928Z,12.00
2023-01-21T03:07:10.338Z,7.60
2023-01-21T03:09:37.384Z,8.98
2023-01-21T03:12:13.150Z,13.10
2023-01-21T03:15:09.686Z,7.97
2023-01-21T03:17:49.688Z,14.90
2023-01-21T03:20:24.986Z,10.48
2023-01-21T03:22:56.805Z,8.23
2023-01-21T03:25:25.608Z,6.90
2023-01-21T03:27:54.095Z,9.77
2023-01-21T03:30:24.212Z,10.55
2023-01-21T03:32:53.091Z,7.68
2023-01-21T03:35:28.667Z,6.63
2023-01-21T03:38:01.743Z,9.30
2023-01-21T03:40:41.943Z,9.20
2023-01-21T03:43:09.782Z,7.03
2023-01-21T03:45:44.678Z,5.82
2023-01-21T03:48:20.960Z,8.18
2023-01-21T03:51:01.305Z,10.60
2023-01-21T03:53:28.605Z,7.80
2023-01-21T03:55:55.292Z,7.53
2023-01-21T03:58:21.990Z,6.13
2023-01-21T04:00:49.312Z,6.55
2023-01-21T04:03:15.987Z,6.50
2023-01-21T04:05:42.742Z,5.90
2023-01-21T04:08:09.391Z,6.95
2023-01-21T04:10:36.023Z,6.03
2023-01-21T04:13:02.641Z,6.05
2023-01-21T04:15:29.306Z,8.23
2023-01-21T04:17:55.940Z,7.38
2023-01-21T04:20:22.644Z,7.68
2023-01-21T04:22:49.280Z,5.40
2023-01-21T04:25:16.114Z,6.45
2023-01-21T04:27:42.797Z,10.05
2023-01-21T04:30:10.027Z,9.07
2023-01-21T04:32:37.583Z,6.97
2023-01-21T04:35:04.584Z,6.55
2023-01-21T04:37:31.311Z,7.68
2023-01-21T04:39:57.968Z,6.80
2023-01-21T04:42:24.569Z,5.68
2023-01-21T04:44:51.200Z,5.90
2023-01-21T04:47:17.822Z,8.63
2023-01-21T04:49:44.495Z,6.50
2023-01-21T04:52:11.094Z,5.47
2023-01-21T04:54:37.835Z,6.28
2023-01-21T04:57:04.502Z,4.38
2023-01-21T04:59:31.184Z,5.70
2023-01-21T05:01:58.057Z,8.20
2023-01-21T05:04:24.732Z,7.28
2023-01-21T05:06:51.504Z,8.68
2023-01-21T05:09:18.145Z,4.80
2023-01-21T05:11:44.899Z,6.95
2023-01-21T05:14:11.564Z,5.50
2023-01-21T05:16:38.374Z,8.95
2023-01-21T05:19:05.127Z,10.68
2023-01-21T05:21:31.806Z,9.38
2023-01-21T05:23:58.464Z,9.63
2023-01-21T05:26:25.142Z,6.88
2023-01-21T05:28:51.800Z,6.95
2023-01-21T05:31:18.625Z,10.27
2023-01-21T05:33:47.214Z,8.32
2023-01-21T05:36:13.956Z,7.43
2023-01-21T05:38:40.634Z,6.75
2023-01-21T05:41:07.355Z,7.90
2023-01-21T05:43:34.206Z,8.60
2023-01-21T05:46:01.241Z,10.65
2023-01-21T05:48:29.598Z,8.23
2023-01-21T05:50:58.380Z,8.10
2023-01-21T05:53:25.981Z,7.90
2023-01-21T05:55:54.546Z,10.05
2023-01-21T05:58:21.898Z,7.63
2023-01-21T06:00:48.896Z,7.85
2023-01-21T06:03:16.799Z,6.40
2023-01-21T06:05:44.577Z,10.38
2023-01-21T06:08:11.995Z,8.38
2023-01-21T06:10:39.278Z,12.25
2023-01-21T06:13:05.931Z,8.38
2023-01-21T06:15:33.761Z,10.73
2023-01-21T06:18:01.258Z,8.38
2023-01-21T06:20:31.565Z,10.85
2023-01-21T06:22:58.972Z,11.15
2023-01-21T06:25:26.208Z,8.73
2023-01-21T06:27:56.369Z,11.43
2023-01-21T06:30:24.587Z,11.80
2023-01-21T06:32:51.603Z,10.57
2023-01-21T06:35:18.924Z,15.73
2023-01-21T06:37:46.028Z,13.32
2023-01-21T06:40:13.952Z,16.15
2023-01-21T06:42:40.642Z,11.95
2023-01-21T06:45:07.885Z,16.15
2023-01-21T06:47:35.320Z,19.45
2023-01-21T06:50:02.008Z,19.67
2023-01-21T06:52:28.689Z,15.23
2023-01-21T06:54:55.380Z,15.90
2023-01-21T06:57:22.075Z,17.15
2023-01-21T06:59:48.751Z,15.73
2023-01-21T07:02:15.510Z,22.52
2023-01-21T07:04:42.212Z,22.40
2023-01-21T07:07:08.886Z,19.02
2023-01-21T07:09:35.545Z,17.88
2023-01-21T07:12:02.370Z,21.52
2023-01-21T07:14:29.156Z,16.88
2023-01-21T07:16:56.743Z,16.70
2023-01-21T07:19:23.544Z,17.27
2023-01-21T07:21:50.797Z,21.90
2023-01-21T07:24:17.475Z,18.23
2023-01-21T07:26:44.219Z,18.40
2023-01-21T07:29:10.897Z,18.98
2023-01-21T07:31:37.736Z,18.02
2023-01-21T07:34:04.502Z,21.10
2023-01-21T07:36:31.377Z,18.98
2023-01-21T07:38:58.296Z,19.95
2023-01-21T07:41:25.130Z,16.30
2023-01-21T07:43:51.843Z,20.23
2023-01-21T07:46:20.183Z,17.95
2023-01-21T07:48:53.119Z,20.90
2023-01-21T07:51:20.928Z,24.33
2023-01-21T07:53:47.663Z,24.13
2023-01-21T07:56:15.027Z,18.00
2023-01-21T07:58:41.960Z,20.60
2023-01-21T08:01:09.566Z,23.05
2023-01-21T08:03:37.419Z,19.52
2023-01-21T08:06:05.657Z,22.10
2023-01-21T08:08:33.257Z,25.63
2023-01-21T08:11:00.086Z,20.58
2023-01-21T08:13:26.855Z,19.00
2023-01-21T08:15:56.035Z,20.00
2023-01-21T08:18:23.752Z,16.90
2023-01-21T08:20:58.202Z,17.02
2023-01-21T08:23:26.273Z,16.17
2023-01-21T08:25:53.515Z,19.70
2023-01-21T08:28:20.465Z,22.50
2023-01-21T08:30:47.248Z,20.02
2023-01-21T08:33:14.285Z,17.05
2023-01-21T08:35:41.023Z,19.85
2023-01-21T08:38:07.731Z,15.68
2023-01-21T08:40:34.545Z,16.25
2023-01-21T08:43:03.601Z,18.48
2023-01-21T08:45:30.907Z,17.50
2023-01-21T08:47:57.583Z,15.30
2023-01-21T08:50:24.601Z,19.30
2023-01-21T08:52:55.338Z,18.73
2023-01-21T08:55:26.658Z,17.77
2023-01-21T08:57:54.637Z,18.33
2023-01-21T09:00:23.789Z,16.02
2023-01-21T09:02:51.748Z,22.40
2023-01-21T09:05:19.287Z,19.00
2023-01-21T09:07:46.411Z,16.02
2023-01-21T09:10:33.888Z,18.40
2023-01-21T09:13:09.992Z,17.60
2023-01-21T09:15:43.885Z,18.60
2023-01-21T09:18:11.061Z,22.35
2023-01-21T09:20:39.452Z,18.67
2023-01-21T09:23:28.102Z,17.63
2023-01-21T09:26:05.619Z,18.92
2023-01-21T09:28:38.560Z,24.90
2023-01-21T09:31:08.216Z,22.58
2023-01-21T09:33:37.426Z,16.35
2023-01-21T09:36:06.942Z,16.73
2023-01-21T09:38:33.892Z,17.77
2023-01-21T09:41:18.589Z,17.88
2023-01-21T09:43:59.027Z,18.15
2023-01-21T09:47:04.677Z,17.02
2023-01-21T09:49:37.463Z,26.35
2023-01-21T09:52:28.972Z,18.00
2023-01-21T09:54:57.389Z,22.67
2023-01-21T09:57:36.208Z,15.82
2023-01-21T10:00:27.483Z,18.73
2023-01-21T10:03:24.836Z,14.57
2023-01-21T10:06:16.578Z,17.02
2023-01-21T10:08:45.945Z,20.23
2023-01-21T10:11:12.612Z,19.98
2023-01-21T10:14:00.527Z,18.52
2023-01-21T10:16:48.267Z,20.70
2023-01-21T10:19:22.437Z,15.90
2023-01-21T10:21:55.840Z,13.23
2023-01-21T10:24:30.440Z,17.63
2023-01-21T10:26:58.434Z,18.08
2023-01-21T10:29:27.031Z,18.42
2023-01-21T10:31:59.629Z,15.45
2023-01-21T10:34:31.324Z,13.80
2023-01-21T10:37:16.670Z,14.00
2023-01-21T10:40:04.638Z,15.90
2023-01-21T10:42:55.342Z,13.15
2023-01-21T10:45:26.828Z,19.30
2023-01-21T10:48:26.908Z,18.95
2023-01-21T10:51:04.579Z,13.70
2023-01-21T10:54:03.162Z,19.20
2023-01-21T10:56:42.100Z,13.60
2023-01-21T10:59:15.017Z,15.50
2023-01-21T11:01:50.364Z,18.55
2023-01-21T11:04:21.369Z,17.13
2023-01-21T11:07:06.434Z,16.67
2023-01-21T11:09:38.584Z,14.63
2023-01-21T11:12:05.476Z,16.10
2023-01-21T11:14:32.105Z,15.50
2023-01-21T11:16:59.263Z,15.77
2023-01-21T11:19:31.958Z,16.33
2023-01-21T11:22:06.144Z,19.65
2023-01-21T11:24:43.591Z,16.67
2023-01-21T11:27:32.990Z,18.50
2023-01-21T11:29:59.941Z,16.10
2023-01-21T11:32:28.788Z,16.75
2023-01-21T11:35:20.297Z,16.05
2023-01-21T11:37:47.126Z,17.58
2023-01-21T11:40:24.914Z,19.23
2023-01-21T11:42:54.595Z,19.13
2023-01-21T11:45:32.818Z,18.13
2023-01-21T11:48:00.444Z,17.48
2023-01-21T11:50:29.735Z,19.58
2023-01-21T11:53:14.154Z,17.73
2023-01-21T11:55:50.165Z,17.75
2023-01-21T11:58:34.727Z,14.75
2023-01-21T12:01:04.390Z,14.70
2023-01-21T12:03:37.164Z,15.10
2023-01-21T12:06:06.771Z,15.27
2023-01-21T12:08:36.929Z,15.02
2023-01-21T12:11:06.624Z,11.25
2023-01-21T12:14:04.283Z,15.30
2023-01-21T12:16:35.287Z,17.55
2023-01-21T12:19:04.896Z,15.23
2023-01-21T12:21:40.488Z,12.32
2023-01-21T12:24:40.680Z,16.17
2023-01-21T12:27:38.646Z,15.57
2023-01-21T12:30:43.901Z,14.82
2023-01-21T12:33:19.352Z,12.77
2023-01-21T12:35:51.450Z,11.15
2023-01-21T12:38:26.943Z,14.88
2023-01-21T12:41:10.649Z,13.70
2023-01-21T12:43:43.163Z,15.40
2023-01-21T12:46:21.577Z,12.65
2023-01-21T12:48:54.409Z,10.57
2023-01-21T12:51:29.249Z,12.18
2023-01-21T12:54:17.938Z,17.00
2023-01-21T12:57:06.488Z,12.55
2023-01-21T12:59:45.193Z,12.85
2023-01-21T13:02:17.869Z,15.93
2023-01-21T13:04:58.387Z,12.93
2023-01-21T13:07:49.895Z,15.40
2023-01-21T13:10:39.133Z,13.23
2023-01-21T13:13:25.462Z,12.65
2023-01-21T13:15:59.206Z,14.45
2023-01-21T13:18:32.634Z,12.95
2023-01-21T13:21:11.962Z,10.90
2023-01-21T13:23:49.636Z,12.43
2023-01-21T13:26:34.440Z,12.68
2023-01-21T13:29:16.380Z,12.13
2023-01-21T13:31:55.435Z,11.80
2023-01-21T13:34:35.017Z,12.50
2023-01-21T13:37:23.795Z,13.98
2023-01-21T13:40:21.887Z,13.52
2023-01-21T13:42:55.958Z,13.88
2023-01-21T13:45:48.080Z,12.50
2023-01-21T13:48:52.134Z,13.48
2023-01-21T13:51:32.995Z,11.48
2023-01-21T13:54:27.101Z,14.85
2023-01-21T13:57:26.788Z,13.80
2023-01-21T13:59:59.326Z,14.25
2023-01-21T14:02:38.393Z,13.07
2023-01-21T14:05:29.107Z,14.23
2023-01-21T14:08:04.914Z,13.00
2023-01-21T14:10:41.375Z,13.60
2023-01-21T14:13:45.912Z,14.07
2023-01-21T14:16:42.836Z,11.57
2023-01-21T14:19:31.007Z,11.65
2023-01-21T14:22:09.810Z,12.23
2023-01-21T14:24:43.995Z,11.43
2023-01-21T14:27:36.464Z,11.02
2023-01-21T14:30:13.411Z,12.07
2023-01-21T14:32:43.075Z,10.93
2023-01-21T14:35:28.316Z,12.68
2023-01-21T14:38:10.079Z,12.98
2023-01-21T14:40:45.522Z,10.27
2023-01-21T14:43:31.583Z,11.40
2023-01-21T14:46:00.699Z,11.38
2023-01-21T14:48:38.391Z,8.00
2023-01-21T14:51:08.168Z,10.15
2023-01-21T14:53:44.062Z,9.25
2023-01-21T14:56:22.228Z,9.15
2023-01-21T14:58:58.917Z,10.10
2023-01-21T15:01:28.010Z,9.38
2023-01-21T15:03:56.637Z,9.88
2023-01-21T15:06:24.555Z,10.25
2023-01-21T15:08:56.285Z,8.55
2023-01-21T15:11:40.491Z,8.55
2023-01-21T15:14:22.475Z,8.07
2023-01-21T15:16:49.193Z,8.07
2023-01-21T15:19:19.198Z,7.80
2023-01-21T15:22:04.063Z,7.50
2023-01-21T15:24:38.860Z,9.48
2023-01-21T15:27:25.868Z,10.02
2023-01-21T15:29:58.939Z,6.28
2023-01-21T15:32:35.360Z,10.00
2023-01-21T15:35:13.803Z,9.70
2023-01-21T15:37:44.051Z,9.68
2023-01-21T15:40:28.692Z,5.97
2023-01-21T15:43:03.255Z,9.02
2023-01-21T15:45:42.148Z,8.32
2023-01-21T15:48:40.898Z,8.18
2023-01-21T15:51:39.835Z,8.52
2023-01-21T15:54:24.880Z,10.25
2023-01-21T15:57:25.715Z,9.32
2023-01-21T16:00:23.079Z,7.88
2023-01-21T16:03:02.470Z,8.07
2023-01-21T16:05:29.166Z,8.63
2023-01-21T16:08:21.166Z,9.85
2023-01-21T16:11:32.541Z,9.03
2023-01-21T16:14:17.164Z,9.15
2023-01-21T16:17:18.351Z,7.35
2023-01-21T16:19:49.706Z,7.72
2023-01-21T16:22:22.239Z,9.05
2023-01-21T16:24:55.832Z,7.95
2023-01-21T16:27:30.898Z,7.45
2023-01-21T16:29:59.678Z,8.07
2023-01-21T16:32:27.180Z,7.95
2023-01-21T16:34:54.538Z,11.23
2023-01-21T16:37:24.227Z,9.02
2023-01-21T16:39:55.730Z,9.23
2023-01-21T16:42:33.933Z,10.13
2023-01-21T16:45:00.807Z,6.57
2023-01-21T16:47:37.210Z,9.02
2023-01-21T16:50:05.622Z,9.48
2023-01-21T16:52:32.520Z,11.23
2023-01-21T16:54:59.223Z,10.75
2023-01-21T16:57:31.678Z,10.10
2023-01-21T17:00:02.230Z,11.70
2023-01-21T17:02:32.267Z,10.98
2023-01-21T17:05:08.311Z,11.23
2023-01-21T17:07:48.392Z,10.55
2023-01-21T17:10:15.015Z,11.00
2023-01-21T17:12:47.668Z,8.38
2023-01-21T17:15:41.399Z,10.93
2023-01-21T17:18:21.847Z,10.15
2023-01-21T17:21:08.505Z,9.13
2023-01-21T17:23:39.818Z,11.50
2023-01-21T17:26:17.167Z,7.07
2023-01-21T17:28:59.857Z,10.60
2023-01-21T17:31:28.423Z,8.45
2023-01-21T17:34:20.725Z,11.10
2023-01-21T17:36:50.553Z,9.82
2023-01-21T17:39:48.624Z,8.50
2023-01-21T17:42:18.142Z,11.40
2023-01-21T17:44:48.882Z,9.82
2023-01-21T17:47:43.722Z,10.13
2023-01-21T17:50:28.862Z,11.02
2023-01-21T17:53:03.465Z,12.52
2023-01-21T17:55:31.690Z,8.75
2023-01-21T17:58:04.480Z,10.82
2023-01-21T18:00:42.767Z,10.95
2023-01-21T18:03:10.837Z,8.50
2023-01-21T18:05:39.767Z,10.25
2023-01-21T18:08:17.549Z,13.25
2023-01-21T18:10:45.965Z,11.68
2023-01-21T18:13:14.491Z,14.65
2023-01-21T18:15:43.104Z,9.98
2023-01-21T18:18:22.143Z,8.73
2023-01-21T18:20:48.898Z,12.18
2023-01-21T18:23:18.049Z,14.40
2023-01-21T18:25:52.349Z,9.73
2023-01-21T18:28:21.564Z,12.52
2023-01-21T18:30:48.909Z,12.95
2023-01-21T18:33:15.859Z,11.63
2023-01-21T18:35:47.672Z,13.73
2023-01-21T18:38:19.126Z,10.63
2023-01-21T18:40:46.037Z,10.85
2023-01-21T18:43:12.736Z,12.20
2023-01-21T18:45:40.075Z,13.13
2023-01-21T18:48:12.230Z,12.35
2023-01-21T18:50:38.911Z,11.52
2023-01-21T18:53:06.165Z,12.23
2023-01-21T18:55:32.880Z,13.88
2023-01-21T18:57:59.720Z,13.32
2023-01-21T19:00:31.442Z,11.70
2023-01-21T19:03:01.207Z,12.60
2023-01-21T19:05:33.981Z,10.18
2023-01-21T19:08:06.221Z,9.95
2023-01-21T19:10:32.911Z,12.48
2023-01-21T19:12:59.565Z,12.30
2023-01-21T19:15:28.302Z,13.85
2023-01-21T19:17:56.227Z,13.18
2023-01-21T19:20:29.488Z,11.25
2023-01-21T19:22:56.690Z,14.65
2023-01-21T19:25:26.197Z,14.02
2023-01-21T19:27:56.145Z,12.35
2023-01-21T19:30:31.379Z,12.02
2023-01-21T19:33:00.772Z,14.85
2023-01-21T19:35:32.452Z,12.50
2023-01-21T19:38:00.364Z,13.70
2023-01-21T19:40:28.720Z,11.93
2023-01-21T19:42:55.654Z,13.50
2023-01-21T19:45:24.401Z,14.93
2023-01-21T19:47:51.591Z,13.32
2023-01-21T19:50:26.578Z,13.35
2023-01-21T19:52:54.629Z,13.23
2023-01-21T19:55:24.280Z,13.07
2023-01-21T19:58:02.019Z,12.27
2023-01-21T20:00:32.030Z,14.18
2023-01-21T20:02:59.606Z,13.60
2023-01-21T20:05:33.776Z,12.98
2023-01-21T20:08:02.393Z,10.60
2023-01-21T20:10:30.510Z,12.73
2023-01-21T20:12:58.008Z,11.70
2023-01-21T20:15:34.172Z,14.32
2023-01-21T20:18:02.441Z,13.23
2023-01-21T20:20:31.500Z,11.50
2023-01-21T20:22:59.713Z,10.90
2023-01-21T20:25:37.649Z,14.80
2023-01-21T20:28:16.049Z,12.20
2023-01-21T20:30:42.735Z,11.75
2023-01-21T20:33:11.812Z,10.23
2023-01-21T20:35:38.550Z,13.13
2023-01-21T20:38:10.318Z,13.23
2023-01-21T20:40:37.065Z,10.98
2023-01-21T20:43:03.781Z,13.50
2023-01-21T20:45:34.348Z,11.23
2023-01-21T20:48:03.162Z,12.82
2023-01-21T20:50:35.318Z,12.23
2023-01-21T20:53:05.200Z,11.20
2023-01-21T20:55:31.980Z,13.63
2023-01-21T20:57:58.689Z,13.13
2023-01-21T21:00:28.006Z,14.13
2023-01-21T21:02:55.599Z,11.73
2023-01-21T21:05:22.554Z,12.25
2023-01-21T21:07:49.471Z,10.52
2023-01-21T21:10:22.980Z,12.38
2023-01-21T21:12:50.415Z,12.25
2023-01-21T21:15:19.342Z,11.38
2023-01-21T21:17:48.281Z,10.70
2023-01-21T21:20:24.713Z,12.10
2023-01-21T21:22:51.821Z,11.75
2023-01-21T21:25:21.073Z,12.82
2023-01-21T21:27:48.493Z,12.60
2023-01-21T21:30:21.994Z,11.82
2023-01-21T21:32:48.777Z,11.80
2023-01-21T21:35:33.312Z,11.18
2023-01-21T21:38:04.391Z,10.05
2023-01-21T21:40:31.567Z,11.70
2023-01-21T21:43:17.595Z,11.25
2023-01-21T21:46:03.201Z,12.93
2023-01-21T21:48:39.370Z,12.90
2023-01-21T21:51:07.719Z,11.13
2023-01-21T21:53:34.491Z,12.07
2023-01-21T21:56:05.436Z,11.35
2023-01-21T21:58:32.319Z,11.55
2023-01-21T22:01:09.516Z,10.32
2023-01-21T22:03:36.209Z,11.00
2023-01-21T22:06:04.086Z,10.60
2023-01-21T22:08:35.480Z,10.60
2023-01-21T22:11:04.792Z,9.85
2023-01-21T22:13:33.782Z,10.30
2023-01-21T22:16:01.662Z,12.00
2023-01-21T22:18:29.995Z,11.05
2023-01-21T22:21:05.604Z,11.48
2023-01-21T22:23:34.304Z,10.80
2023-01-21T22:26:02.608Z,10.55
2023-01-21T22:28:29.395Z,10.43
2023-01-21T22:31:02.474Z,13.18
2023-01-21T22:33:29.183Z,9.23
2023-01-21T22:35:55.883Z,10.43
2023-01-21T22:38:22.552Z,12.32
2023-01-21T22:40:53.877Z,10.38
2023-01-21T22:43:21.070Z,11.48
2023-01-21T22:45:48.533Z,10.32
2023-01-21T22:48:15.893Z,9.25
2023-01-21T22:50:44.554Z,9.63
2023-01-21T22:53:13.880Z,11.93
2023-01-21T22:55:40.616Z,11.65
2023-01-21T22:58:07.356Z,12.25
2023-01-21T23:00:39.395Z,11.85
2023-01-21T23:03:07.552Z,9.98
2023-01-21T23:05:35.343Z,11.27
2023-01-21T23:08:02.104Z,10.88
2023-01-21T23:10:28.929Z,8.27
2023-01-21T23:12:55.597Z,9.48
2023-01-21T23:15:22.962Z,9.32
2023-01-21T23:17:50.295Z,8.43
2023-01-21T23:20:17.576Z,10.93
2023-01-21T23:22:44.876Z,9.52
2023-01-21T23:25:13.580Z,10.60
2023-01-21T23:27:40.877Z,8.90
2023-01-21T23:30:08.444Z,8.77
2023-01-21T23:32:35.108Z,8.60
2023-01-21T23:35:01.811Z,9.65
2023-01-21T23:37:28.634Z,9.30
2023-01-21T23:39:55.264Z,9.57
2023-01-21T23:42:23.702Z,7.93
2023-01-21T23:44:51.135Z,7.57
2023-01-21T23:47:18.174Z,8.40
2023-01-21T23:49:44.887Z,9.38
2023-01-21T23:52:12.662Z,9.57
2023-01-21T23:54:46.091Z,8.68
2023-01-21T23:57:13.164Z,7.95
2023-01-21T23:59:39.950Z,7.60
